sensor_id;sensor_type;location;lat;lon;timestamp;pressure;altitude;pressure_sealevel;temperature;humidity
35848;BME280;22332;51.954;20.118;2023-04-15T00:03:01;99216.86;;;11.41;67.51
35848;BME280;22332;51.954;20.118;2023-04-15T00:06:08;99218.33;;;11.37;67.83
35848;BME280;22332;51.954;20.118;2023-04-15T00:09:13;99218.19;;;11.34;68.06
35848;BME280;22332;51.954;20.118;2023-04-15T00:12:19;99215.05;;;11.32;68.08
35848;BME280;22332;51.954;20.118;2023-04-15T00:15:24;99219.36;;;11.32;67.97
35848;BME280;22332;51.954;20.118;2023-04-15T00:18:30;99215.67;;;11.33;67.89
35848;BME280;22332;51.954;20.118;2023-04-15T00:21:35;99215.46;;;11.37;67.98
35848;BME280;22332;51.954;20.118;2023-04-15T00:24:41;99209.75;;;11.41;68.23
35848;BME280;22332;51.954;20.118;2023-04-15T00:27:47;99210.59;;;11.43;68.12
35848;BME280;22332;51.954;20.118;2023-04-15T00:30:52;99209.91;;;11.44;68.02
35848;BME280;22332;51.954;20.118;2023-04-15T00:33:58;99208.91;;;11.43;68.40
35848;BME280;22332;51.954;20.118;2023-04-15T00:37:04;99203.50;;;11.41;68.11
35848;BME280;22332;51.954;20.118;2023-04-15T00:40:12;99203.76;;;11.38;68.50
35848;BME280;22332;51.954;20.118;2023-04-15T00:43:18;99205.69;;;11.36;68.16
35848;BME280;22332;51.954;20.118;2023-04-15T00:46:25;99206.89;;;11.33;68.00
35848;BME280;22332;51.954;20.118;2023-04-15T00:49:31;99206.50;;;11.32;68.43
35848;BME280;22332;51.954;20.118;2023-04-15T00:52:37;99207.20;;;11.29;68.65
35848;BME280;22332;51.954;20.118;2023-04-15T00:55:42;99207.80;;;11.26;68.93
35848;BME280;22332;51.954;20.118;2023-04-15T00:58:48;99208.64;;;11.23;68.79
35848;BME280;22332;51.954;20.118;2023-04-15T01:01:54;99208.17;;;11.26;68.71
35848;BME280;22332;51.954;20.118;2023-04-15T01:05:00;99210.19;;;11.29;68.96
35848;BME280;22332;51.954;20.118;2023-04-15T01:08:06;99211.11;;;11.33;69.09
35848;BME280;22332;51.954;20.118;2023-04-15T01:11:12;99208.92;;;11.35;68.92
35848;BME280;22332;51.954;20.118;2023-04-15T01:14:18;99205.44;;;11.35;69.21
35848;BME280;22332;51.954;20.118;2023-04-15T01:17:24;99208.98;;;11.34;68.95
35848;BME280;22332;51.954;20.118;2023-04-15T01:20:30;99206.44;;;11.30;69.34
35848;BME280;22332;51.954;20.118;2023-04-15T01:23:38;99210.60;;;11.26;69.30
35848;BME280;22332;51.954;20.118;2023-04-15T01:26:45;99210.22;;;11.25;69.39
35848;BME280;22332;51.954;20.118;2023-04-15T01:29:52;99208.73;;;11.21;69.77
35848;BME280;22332;51.954;20.118;2023-04-15T01:32:57;99211.79;;;11.14;69.62
35848;BME280;22332;51.954;20.118;2023-04-15T01:36:04;99213.64;;;11.12;69.76
35848;BME280;22332;51.954;20.118;2023-04-15T01:39:10;99210.53;;;11.13;70.07
35848;BME280;22332;51.954;20.118;2023-04-15T01:42:15;99211.64;;;11.16;70.29
35848;BME280;22332;51.954;20.118;2023-04-15T01:45:21;99210.09;;;11.18;70.41
35848;BME280;22332;51.954;20.118;2023-04-15T01:48:26;99214.29;;;11.19;70.18
35848;BME280;22332;51.954;20.118;2023-04-15T01:51:32;99216.52;;;11.18;70.79
35848;BME280;22332;51.954;20.118;2023-04-15T01:54:37;99211.70;;;11.14;70.79
35848;BME280;22332;51.954;20.118;2023-04-15T01:57:42;99210.20;;;11.10;70.65
35848;BME280;22332;51.954;20.118;2023-04-15T02:00:48;99212.98;;;11.08;70.93
35848;BME280;22332;51.954;20.118;2023-04-15T02:03:54;99212.95;;;11.02;71.59
35848;BME280;22332;51.954;20.118;2023-04-15T02:07:00;99218.38;;;10.96;71.74
35848;BME280;22332;51.954;20.118;2023-04-15T02:10:07;99215.08;;;10.95;71.59
35848;BME280;22332;51.954;20.118;2023-04-15T02:13:13;99216.14;;;10.98;71.96
35848;BME280;22332;51.954;20.118;2023-04-15T02:16:20;99219.89;;;11.02;72.02
35848;BME280;22332;51.954;20.118;2023-04-15T02:19:26;99214.98;;;11.03;72.11
35848;BME280;22332;51.954;20.118;2023-04-15T02:22:31;99219.23;;;11.01;72.50
35848;BME280;22332;51.954;20.118;2023-04-15T02:25:37;99220.89;;;10.98;72.50
35848;BME280;22332;51.954;20.118;2023-04-15T02:28:44;99227.31;;;10.93;72.72
35848;BME280;22332;51.954;20.118;2023-04-15T02:31:52;99226.38;;;10.86;73.38
35848;BME280;22332;51.954;20.118;2023-04-15T02:35:03;99224.70;;;10.82;73.53
35848;BME280;22332;51.954;20.118;2023-04-15T02:38:09;99224.77;;;10.81;73.76
35848;BME280;22332;51.954;20.118;2023-04-15T02:41:14;99219.92;;;10.80;73.71
35848;BME280;22332;51.954;20.118;2023-04-15T02:44:22;99218.55;;;10.80;73.84
35848;BME280;22332;51.954;20.118;2023-04-15T02:47:29;99223.17;;;10.78;74.29
35848;BME280;22332;51.954;20.118;2023-04-15T02:50:35;99222.78;;;10.77;73.97
35848;BME280;22332;51.954;20.118;2023-04-15T02:53:42;99218.73;;;10.74;74.04
35848;BME280;22332;51.954;20.118;2023-04-15T02:56:48;99217.94;;;10.73;74.24
35848;BME280;22332;51.954;20.118;2023-04-15T02:59:53;99218.04;;;10.74;74.59
35848;BME280;22332;51.954;20.118;2023-04-15T03:03:03;99221.06;;;10.75;74.49
35848;BME280;22332;51.954;20.118;2023-04-15T03:06:08;99221.89;;;10.77;74.66
35848;BME280;22332;51.954;20.118;2023-04-15T03:09:14;99221.63;;;10.76;74.46
35848;BME280;22332;51.954;20.118;2023-04-15T03:12:20;99221.13;;;10.74;74.80
35848;BME280;22332;51.954;20.118;2023-04-15T03:15:29;99225.45;;;10.72;74.77
35848;BME280;22332;51.954;20.118;2023-04-15T03:18:35;99222.92;;;10.68;74.90
35848;BME280;22332;51.954;20.118;2023-04-15T03:21:40;99228.24;;;10.66;74.88
35848;BME280;22332;51.954;20.118;2023-04-15T03:24:46;99228.50;;;10.66;74.94
35848;BME280;22332;51.954;20.118;2023-04-15T03:27:52;99228.80;;;10.68;75.13
35848;BME280;22332;51.954;20.118;2023-04-15T03:30:57;99229.92;;;10.71;75.29
35848;BME280;22332;51.954;20.118;2023-04-15T03:34:03;99232.33;;;10.69;75.17
35848;BME280;22332;51.954;20.118;2023-04-15T03:37:08;99231.73;;;10.68;75.73
35848;BME280;22332;51.954;20.118;2023-04-15T03:40:14;99234.62;;;10.64;75.52
35848;BME280;22332;51.954;20.118;2023-04-15T03:43:20;99236.16;;;10.60;75.72
35848;BME280;22332;51.954;20.118;2023-04-15T03:46:25;99228.98;;;10.56;75.70
35848;BME280;22332;51.954;20.118;2023-04-15T03:49:31;99230.27;;;10.58;75.75
35848;BME280;22332;51.954;20.118;2023-04-15T03:52:36;99231.17;;;10.63;75.91
35848;BME280;22332;51.954;20.118;2023-04-15T03:55:42;99235.23;;;10.68;75.94
35848;BME280;22332;51.954;20.118;2023-04-15T03:58:47;99231.98;;;10.70;75.84
35848;BME280;22332;51.954;20.118;2023-04-15T04:01:53;99235.88;;;10.70;75.85
35848;BME280;22332;51.954;20.118;2023-04-15T04:04:58;99235.80;;;10.68;76.15
35848;BME280;22332;51.954;20.118;2023-04-15T04:08:05;99234.50;;;10.67;76.21
35848;BME280;22332;51.954;20.118;2023-04-15T04:11:10;99234.97;;;10.67;76.02
35848;BME280;22332;51.954;20.118;2023-04-15T04:14:16;99235.79;;;10.69;76.38
35848;BME280;22332;51.954;20.118;2023-04-15T04:17:21;99238.70;;;10.72;76.04
35848;BME280;22332;51.954;20.118;2023-04-15T04:20:27;99243.52;;;10.73;76.43
35848;BME280;22332;51.954;20.118;2023-04-15T04:23:33;99242.58;;;10.71;76.61
35848;BME280;22332;51.954;20.118;2023-04-15T04:26:38;99243.02;;;10.67;76.62
35848;BME280;22332;51.954;20.118;2023-04-15T04:29:44;99246.40;;;10.64;76.89
35848;BME280;22332;51.954;20.118;2023-04-15T04:32:51;99245.55;;;10.62;76.96
35848;BME280;22332;51.954;20.118;2023-04-15T04:35:56;99248.09;;;10.61;76.93
35848;BME280;22332;51.954;20.118;2023-04-15T04:39:02;99250.20;;;10.63;77.04
35848;BME280;22332;51.954;20.118;2023-04-15T04:42:07;99253.30;;;10.66;76.98
35848;BME280;22332;51.954;20.118;2023-04-15T04:45:13;99249.00;;;10.68;77.07
35848;BME280;22332;51.954;20.118;2023-04-15T04:48:18;99252.17;;;10.68;77.27
35848;BME280;22332;51.954;20.118;2023-04-15T04:51:24;99252.27;;;10.67;77.37
35848;BME280;22332;51.954;20.118;2023-04-15T04:54:29;99251.07;;;10.68;77.58
35848;BME280;22332;51.954;20.118;2023-04-15T04:57:34;99250.95;;;10.71;77.87
35848;BME280;22332;51.954;20.118;2023-04-15T05:00:41;99246.20;;;10.76;77.43
35848;BME280;22332;51.954;20.118;2023-04-15T05:03:47;99249.16;;;10.81;77.78
35848;BME280;22332;51.954;20.118;2023-04-15T05:06:52;99249.12;;;10.86;77.86
35848;BME280;22332;51.954;20.118;2023-04-15T05:09:58;99253.14;;;10.88;77.56
35848;BME280;22332;51.954;20.118;2023-04-15T05:13:04;99255.25;;;10.87;77.47
35848;BME280;22332;51.954;20.118;2023-04-15T05:16:09;99257.83;;;10.86;77.73
35848;BME280;22332;51.954;20.118;2023-04-15T05:19:15;99257.20;;;10.90;77.55
35848;BME280;22332;51.954;20.118;2023-04-15T05:22:23;99257.35;;;10.95;77.53
35848;BME280;22332;51.954;20.118;2023-04-15T05:25:28;99258.13;;;10.99;77.58
35848;BME280;22332;51.954;20.118;2023-04-15T05:28:34;99254.39;;;11.02;77.89
35848;BME280;22332;51.954;20.118;2023-04-15T05:31:39;99253.89;;;11.05;77.86
35848;BME280;22332;51.954;20.118;2023-04-15T05:34:45;99253.22;;;11.06;77.65
35848;BME280;22332;51.954;20.118;2023-04-15T05:37:50;99258.46;;;11.05;77.71
35848;BME280;22332;51.954;20.118;2023-04-15T05:40:56;99265.46;;;11.03;77.93
35848;BME280;22332;51.954;20.118;2023-04-15T05:44:01;99264.95;;;11.03;78.03
35848;BME280;22332;51.954;20.118;2023-04-15T05:47:07;99265.28;;;11.05;78.11
35848;BME280;22332;51.954;20.118;2023-04-15T05:50:14;99265.27;;;11.07;78.15
35848;BME280;22332;51.954;20.118;2023-04-15T05:53:19;99269.63;;;11.07;78.11
35848;BME280;22332;51.954;20.118;2023-04-15T05:56:25;99267.34;;;11.10;78.15
35848;BME280;22332;51.954;20.118;2023-04-15T05:59:31;99269.25;;;11.09;78.34
35848;BME280;22332;51.954;20.118;2023-04-15T06:02:36;99274.64;;;11.07;78.30
35848;BME280;22332;51.954;20.118;2023-04-15T06:05:42;99276.55;;;11.09;78.41
35848;BME280;22332;51.954;20.118;2023-04-15T06:08:48;99278.96;;;11.13;78.71
35848;BME280;22332;51.954;20.118;2023-04-15T08:55:23;99326.52;;;12.19;80.53
35848;BME280;22332;51.954;20.118;2023-04-15T08:58:29;99326.75;;;12.22;80.47
35848;BME280;22332;51.954;20.118;2023-04-15T09:01:35;99328.33;;;12.22;80.37
35848;BME280;22332;51.954;20.118;2023-04-15T09:04:41;99331.04;;;12.22;80.43
35848;BME280;22332;51.954;20.118;2023-04-15T09:07:47;99334.30;;;12.16;80.45
35848;BME280;22332;51.954;20.118;2023-04-15T09:10:54;99332.89;;;12.12;80.61
35848;BME280;22332;51.954;20.118;2023-04-15T09:13:59;99337.73;;;12.12;80.62
35848;BME280;22332;51.954;20.118;2023-04-15T09:17:05;99336.95;;;12.13;80.52
35848;BME280;22332;51.954;20.118;2023-04-15T09:20:15;99332.39;;;12.17;80.68
35848;BME280;22332;51.954;20.118;2023-04-15T09:23:22;99326.69;;;12.22;80.70
35848;BME280;22332;51.954;20.118;2023-04-15T09:26:35;99332.88;;;12.34;80.65
35848;BME280;22332;51.954;20.118;2023-04-15T09:29:42;99334.09;;;12.39;80.43
35848;BME280;22332;51.954;20.118;2023-04-15T09:32:52;99331.38;;;12.36;80.38
35848;BME280;22332;51.954;20.118;2023-04-15T09:35:59;99328.38;;;12.32;80.38
35848;BME280;22332;51.954;20.118;2023-04-15T09:39:05;99323.48;;;12.27;80.55
35848;BME280;22332;51.954;20.118;2023-04-15T09:42:11;99331.67;;;12.26;80.64
35848;BME280;22332;51.954;20.118;2023-04-15T09:45:16;99343.54;;;12.33;80.90
35848;BME280;22332;51.954;20.118;2023-04-15T09:48:25;99346.84;;;12.44;81.02
35848;BME280;22332;51.954;20.118;2023-04-15T09:51:35;99353.41;;;12.50;80.96
35848;BME280;22332;51.954;20.118;2023-04-15T09:54:43;99356.09;;;12.57;80.78
35848;BME280;22332;51.954;20.118;2023-04-15T09:57:49;99360.13;;;12.57;80.80
35848;BME280;22332;51.954;20.118;2023-04-15T10:00:55;99364.23;;;12.61;80.76
35848;BME280;22332;51.954;20.118;2023-04-15T10:04:03;99368.04;;;12.68;80.86
35848;BME280;22332;51.954;20.118;2023-04-15T10:07:09;99366.13;;;12.72;80.65
35848;BME280;22332;51.954;20.118;2023-04-15T10:10:16;99368.63;;;12.77;80.74
35848;BME280;22332;51.954;20.118;2023-04-15T10:13:24;99366.13;;;12.83;80.59
35848;BME280;22332;51.954;20.118;2023-04-15T10:16:32;99363.96;;;12.88;80.72
35848;BME280;22332;51.954;20.118;2023-04-15T10:19:40;99364.13;;;12.96;80.74
35848;BME280;22332;51.954;20.118;2023-04-15T10:22:47;99362.41;;;13.02;80.34
35848;BME280;22332;51.954;20.118;2023-04-15T10:25:53;99364.58;;;13.04;80.56
35848;BME280;22332;51.954;20.118;2023-04-15T10:28:59;99365.23;;;13.11;80.78
35848;BME280;22332;51.954;20.118;2023-04-15T10:32:06;99369.27;;;13.21;80.77
35848;BME280;22332;51.954;20.118;2023-04-15T10:35:11;99369.63;;;13.30;80.94
35848;BME280;22332;51.954;20.118;2023-04-15T10:38:34;99373.99;;;13.39;80.67
35848;BME280;22332;51.954;20.118;2023-04-15T10:41:40;99373.43;;;13.47;80.53
35848;BME280;22332;51.954;20.118;2023-04-15T10:44:49;99369.80;;;13.51;80.36
35848;BME280;22332;51.954;20.118;2023-04-15T10:47:57;99369.83;;;13.50;80.31
35848;BME280;22332;51.954;20.118;2023-04-15T10:51:05;99367.60;;;13.44;80.19
35848;BME280;22332;51.954;20.118;2023-04-15T10:54:29;99373.58;;;13.37;80.26
35848;BME280;22332;51.954;20.118;2023-04-15T10:57:39;99371.55;;;13.42;80.51
35848;BME280;22332;51.954;20.118;2023-04-15T11:00:50;99373.25;;;13.58;80.59
35848;BME280;22332;51.954;20.118;2023-04-15T11:03:56;99372.98;;;13.77;80.36
35848;BME280;22332;51.954;20.118;2023-04-15T11:07:07;99373.50;;;13.94;80.53
35848;BME280;22332;51.954;20.118;2023-04-15T11:13:57;99374.31;;;14.13;79.91
35848;BME280;22332;51.954;20.118;2023-04-15T11:17:02;99381.00;;;14.12;79.81
35848;BME280;22332;51.954;20.118;2023-04-15T11:20:10;99380.32;;;13.97;79.05
35848;BME280;22332;51.954;20.118;2023-04-15T11:23:26;99382.41;;;13.87;79.49
35848;BME280;22332;51.954;20.118;2023-04-15T11:26:31;99380.06;;;13.93;79.67
35848;BME280;22332;51.954;20.118;2023-04-15T11:29:37;99379.83;;;14.02;79.73
35848;BME280;22332;51.954;20.118;2023-04-15T11:32:43;99384.27;;;14.14;79.61
35848;BME280;22332;51.954;20.118;2023-04-15T11:35:48;99391.19;;;14.33;79.79
35848;BME280;22332;51.954;20.118;2023-04-15T11:38:54;99391.52;;;14.56;79.73
35848;BME280;22332;51.954;20.118;2023-04-15T11:42:01;99390.45;;;14.76;79.31
35848;BME280;22332;51.954;20.118;2023-04-15T11:45:11;99388.39;;;14.95;78.47
35848;BME280;22332;51.954;20.118;2023-04-15T11:48:18;99388.70;;;15.16;79.02
35848;BME280;22332;51.954;20.118;2023-04-15T11:51:23;99387.42;;;15.35;78.61
35848;BME280;22332;51.954;20.118;2023-04-15T11:54:29;99391.45;;;15.45;77.93
35848;BME280;22332;51.954;20.118;2023-04-15T11:57:35;99394.42;;;15.47;77.17
35848;BME280;22332;51.954;20.118;2023-04-15T12:00:42;99393.27;;;15.45;77.23
35848;BME280;22332;51.954;20.118;2023-04-15T12:03:51;99397.20;;;15.47;77.43
35848;BME280;22332;51.954;20.118;2023-04-15T12:07:04;99400.88;;;15.48;77.40
35848;BME280;22332;51.954;20.118;2023-04-15T12:10:10;99405.80;;;15.46;76.65
35848;BME280;22332;51.954;20.118;2023-04-15T12:13:16;99406.13;;;15.42;76.64
35848;BME280;22332;51.954;20.118;2023-04-15T12:16:22;99407.92;;;15.36;76.90
35848;BME280;22332;51.954;20.118;2023-04-15T12:19:29;99412.27;;;15.35;76.71
35848;BME280;22332;51.954;20.118;2023-04-15T12:22:38;99411.23;;;15.25;76.44
35848;BME280;22332;51.954;20.118;2023-04-15T12:25:43;99415.33;;;15.23;76.28
35848;BME280;22332;51.954;20.118;2023-04-15T12:28:58;99415.38;;;15.24;76.10
35848;BME280;22332;51.954;20.118;2023-04-15T12:32:09;99412.46;;;15.19;76.09
35848;BME280;22332;51.954;20.118;2023-04-15T12:35:15;99416.63;;;15.14;75.93
35848;BME280;22332;51.954;20.118;2023-04-15T12:38:22;99418.51;;;15.04;75.98
35848;BME280;22332;51.954;20.118;2023-04-15T12:41:28;99417.61;;;14.97;75.96
35848;BME280;22332;51.954;20.118;2023-04-15T12:44:34;99423.03;;;14.98;75.77
35848;BME280;22332;51.954;20.118;2023-04-15T12:47:40;99430.02;;;15.00;75.53
35848;BME280;22332;51.954;20.118;2023-04-15T12:50:45;99425.61;;;15.06;75.48
35848;BME280;22332;51.954;20.118;2023-04-15T12:53:51;99424.81;;;15.14;74.70
35848;BME280;22332;51.954;20.118;2023-04-15T12:56:57;99425.41;;;15.25;74.90
35848;BME280;22332;51.954;20.118;2023-04-15T13:00:03;99424.44;;;15.39;74.67
35848;BME280;22332;51.954;20.118;2023-04-15T13:03:11;99425.61;;;15.43;74.15
35848;BME280;22332;51.954;20.118;2023-04-15T13:06:16;99426.69;;;15.49;73.63
35848;BME280;22332;51.954;20.118;2023-04-15T13:09:22;99431.16;;;15.55;73.63
35848;BME280;22332;51.954;20.118;2023-04-15T13:12:27;99428.85;;;15.59;73.30
35848;BME280;22332;51.954;20.118;2023-04-15T13:15:34;99430.80;;;15.63;73.10
35848;BME280;22332;51.954;20.118;2023-04-15T13:18:40;99432.48;;;15.63;73.17
35848;BME280;22332;51.954;20.118;2023-04-15T13:21:46;99435.84;;;15.64;73.26
35848;BME280;22332;51.954;20.118;2023-04-15T13:24:51;99435.26;;;15.64;73.07
35848;BME280;22332;51.954;20.118;2023-04-15T13:27:56;99444.08;;;15.64;72.82
35848;BME280;22332;51.954;20.118;2023-04-15T13:31:02;99444.95;;;15.61;72.55
35848;BME280;22332;51.954;20.118;2023-04-15T13:34:07;99455.36;;;15.58;72.28
35848;BME280;22332;51.954;20.118;2023-04-15T13:37:13;99455.36;;;15.55;72.12
35848;BME280;22332;51.954;20.118;2023-04-15T13:40:20;99454.44;;;15.49;71.88
35848;BME280;22332;51.954;20.118;2023-04-15T13:43:25;99458.89;;;15.40;71.86
35848;BME280;22332;51.954;20.118;2023-04-15T13:46:31;99460.98;;;15.28;72.01
35848;BME280;22332;51.954;20.118;2023-04-15T13:49:37;99460.84;;;15.23;72.06
35848;BME280;22332;51.954;20.118;2023-04-15T13:52:42;99460.60;;;15.23;71.89
35848;BME280;22332;51.954;20.118;2023-04-15T13:55:47;99461.39;;;15.26;71.65
35848;BME280;22332;51.954;20.118;2023-04-15T13:58:53;99459.36;;;15.27;70.86
35848;BME280;22332;51.954;20.118;2023-04-15T14:02:02;99458.29;;;15.20;70.73
35848;BME280;22332;51.954;20.118;2023-04-15T14:05:09;99461.04;;;15.17;70.82
35848;BME280;22332;51.954;20.118;2023-04-15T14:08:14;99462.89;;;15.18;70.46
35848;BME280;22332;51.954;20.118;2023-04-15T14:11:20;99463.66;;;15.14;70.44
35848;BME280;22332;51.954;20.118;2023-04-15T14:14:25;99465.08;;;15.14;70.13
35848;BME280;22332;51.954;20.118;2023-04-15T14:17:31;99461.97;;;15.11;69.44
35848;BME280;22332;51.954;20.118;2023-04-15T14:20:37;99460.00;;;15.06;69.38
35848;BME280;22332;51.954;20.118;2023-04-15T14:23:42;99464.95;;;15.02;68.81
35848;BME280;22332;51.954;20.118;2023-04-15T14:26:48;99466.02;;;14.99;68.72
35848;BME280;22332;51.954;20.118;2023-04-15T14:29:54;99464.40;;;14.97;68.69
35848;BME280;22332;51.954;20.118;2023-04-15T14:33:03;99461.86;;;14.93;68.56
35848;BME280;22332;51.954;20.118;2023-04-15T14:36:09;99463.63;;;14.89;68.41
35848;BME280;22332;51.954;20.118;2023-04-15T14:39:15;99466.67;;;14.86;68.60
35848;BME280;22332;51.954;20.118;2023-04-15T14:42:20;99470.10;;;14.78;68.27
35848;BME280;22332;51.954;20.118;2023-04-15T14:45:26;99470.93;;;14.69;68.52
35848;BME280;22332;51.954;20.118;2023-04-15T14:48:32;99474.96;;;14.65;68.31
35848;BME280;22332;51.954;20.118;2023-04-15T14:51:39;99475.36;;;14.62;68.04
35848;BME280;22332;51.954;20.118;2023-04-15T14:54:44;99470.97;;;14.59;67.95
35848;BME280;22332;51.954;20.118;2023-04-15T14:57:50;99472.23;;;14.51;67.38
35848;BME280;22332;51.954;20.118;2023-04-15T15:01:01;99476.16;;;14.46;67.94
35848;BME280;22332;51.954;20.118;2023-04-15T15:04:07;99478.13;;;14.52;67.81
35848;BME280;22332;51.954;20.118;2023-04-15T15:07:13;99483.68;;;14.66;67.71
35848;BME280;22332;51.954;20.118;2023-04-15T15:10:19;99487.18;;;14.80;67.17
35848;BME280;22332;51.954;20.118;2023-04-15T15:13:26;99492.89;;;14.91;67.33
35848;BME280;22332;51.954;20.118;2023-04-15T15:16:31;99497.46;;;14.98;67.07
35848;BME280;22332;51.954;20.118;2023-04-15T15:19:37;99505.10;;;14.97;66.84
35848;BME280;22332;51.954;20.118;2023-04-15T15:22:42;99513.77;;;14.93;66.77
35848;BME280;22332;51.954;20.118;2023-04-15T15:25:48;99519.94;;;14.86;66.76
35848;BME280;22332;51.954;20.118;2023-04-15T15:28:53;99522.69;;;14.77;66.46
35848;BME280;22332;51.954;20.118;2023-04-15T15:31:59;99514.61;;;14.70;66.70
35848;BME280;22332;51.954;20.118;2023-04-15T15:35:05;99514.35;;;14.68;66.62
35848;BME280;22332;51.954;20.118;2023-04-15T15:38:14;99518.18;;;14.61;66.53
35848;BME280;22332;51.954;20.118;2023-04-15T15:41:20;99517.69;;;14.47;66.27
35848;BME280;22332;51.954;20.118;2023-04-15T15:44:25;99518.45;;;14.37;65.83
35848;BME280;22332;51.954;20.118;2023-04-15T15:47:31;99517.30;;;14.26;66.26
35848;BME280;22332;51.954;20.118;2023-04-15T15:50:36;99518.40;;;14.19;66.21
35848;BME280;22332;51.954;20.118;2023-04-15T15:53:42;99521.27;;;14.12;66.18
35848;BME280;22332;51.954;20.118;2023-04-15T15:56:48;99526.80;;;14.09;66.11
35848;BME280;22332;51.954;20.118;2023-04-15T15:59:53;99526.27;;;14.10;66.02
35848;BME280;22332;51.954;20.118;2023-04-15T16:02:59;99524.98;;;14.14;66.28
35848;BME280;22332;51.954;20.118;2023-04-15T16:06:05;99521.35;;;14.16;66.34
35848;BME280;22332;51.954;20.118;2023-04-15T16:09:11;99520.66;;;14.17;66.12
35848;BME280;22332;51.954;20.118;2023-04-15T16:12:16;99525.59;;;14.13;66.12
35848;BME280;22332;51.954;20.118;2023-04-15T16:15:23;99526.74;;;14.09;66.03
35848;BME280;22332;51.954;20.118;2023-04-15T16:18:29;99536.03;;;14.03;65.99
35848;BME280;22332;51.954;20.118;2023-04-15T16:21:34;99540.34;;;13.96;65.91
35848;BME280;22332;51.954;20.118;2023-04-15T16:24:40;99546.23;;;13.87;66.01
35848;BME280;22332;51.954;20.118;2023-04-15T16:27:45;99551.52;;;13.79;66.10
35848;BME280;22332;51.954;20.118;2023-04-15T16:30:51;99552.75;;;13.69;66.33
35848;BME280;22332;51.954;20.118;2023-04-15T16:33:57;99555.58;;;13.61;66.45
35848;BME280;22332;51.954;20.118;2023-04-15T16:37:02;99555.10;;;13.53;66.57
35848;BME280;22332;51.954;20.118;2023-04-15T16:40:10;99557.45;;;13.46;66.47
35848;BME280;22332;51.954;20.118;2023-04-15T16:43:15;99564.77;;;13.34;66.73
35848;BME280;22332;51.954;20.118;2023-04-15T16:46:21;99569.02;;;13.23;66.68
35848;BME280;22332;51.954;20.118;2023-04-15T16:49:26;99569.40;;;13.14;66.76
35848;BME280;22332;51.954;20.118;2023-04-15T16:52:33;99577.19;;;13.08;66.86
35848;BME280;22332;51.954;20.118;2023-04-15T16:55:39;99576.58;;;13.02;67.07
35848;BME280;22332;51.954;20.118;2023-04-15T16:58:45;99581.90;;;12.96;67.21
35848;BME280;22332;51.954;20.118;2023-04-15T17:01:51;99585.58;;;12.91;67.43
35848;BME280;22332;51.954;20.118;2023-04-15T17:04:57;99585.98;;;12.88;67.58
35848;BME280;22332;51.954;20.118;2023-04-15T17:08:03;99591.77;;;12.86;67.79
35848;BME280;22332;51.954;20.118;2023-04-15T17:11:09;99596.57;;;12.82;67.73
35848;BME280;22332;51.954;20.118;2023-04-15T17:14:14;99599.05;;;12.77;68.00
35848;BME280;22332;51.954;20.118;2023-04-15T17:17:20;99602.89;;;12.75;68.04
35848;BME280;22332;51.954;20.118;2023-04-15T17:20:26;99610.33;;;12.74;68.32
35848;BME280;22332;51.954;20.118;2023-04-15T17:23:31;99607.10;;;12.72;68.45
35848;BME280;22332;51.954;20.118;2023-04-15T17:26:36;99612.95;;;12.73;68.54
35848;BME280;22332;51.954;20.118;2023-04-15T17:29:42;99613.02;;;12.72;68.55
35848;BME280;22332;51.954;20.118;2023-04-15T17:32:47;99620.90;;;12.71;68.88
35848;BME280;22332;51.954;20.118;2023-04-15T17:35:53;99626.80;;;12.66;68.89
35848;BME280;22332;51.954;20.118;2023-04-15T17:38:59;99626.21;;;12.62;69.10
35848;BME280;22332;51.954;20.118;2023-04-15T17:42:04;99627.08;;;12.59;69.12
35848;BME280;22332;51.954;20.118;2023-04-15T17:45:11;99628.65;;;12.55;69.26
35848;BME280;22332;51.954;20.118;2023-04-15T17:48:16;99631.89;;;12.48;69.35
35848;BME280;22332;51.954;20.118;2023-04-15T17:51:22;99633.47;;;12.38;69.87
35848;BME280;22332;51.954;20.118;2023-04-15T17:54:27;99638.23;;;12.28;70.03
35848;BME280;22332;51.954;20.118;2023-04-15T17:57:33;99641.83;;;12.20;70.40
35848;BME280;22332;51.954;20.118;2023-04-15T18:00:39;99648.85;;;12.13;70.60
35848;BME280;22332;51.954;20.118;2023-04-15T18:03:45;99654.48;;;12.11;70.43
35848;BME280;22332;51.954;20.118;2023-04-15T18:06:51;99660.54;;;12.12;70.32
35848;BME280;22332;51.954;20.118;2023-04-15T18:09:57;99664.42;;;12.12;70.62
35848;BME280;22332;51.954;20.118;2023-04-15T18:13:02;99673.36;;;12.11;70.86
35848;BME280;22332;51.954;20.118;2023-04-15T18:16:08;99673.80;;;12.09;70.75
35848;BME280;22332;51.954;20.118;2023-04-15T18:19:13;99678.76;;;12.04;71.16
35848;BME280;22332;51.954;20.118;2023-04-15T18:22:19;99683.98;;;12.01;71.10
35848;BME280;22332;51.954;20.118;2023-04-15T18:25:25;99689.59;;;11.97;71.09
35848;BME280;22332;51.954;20.118;2023-04-15T18:28:32;99691.60;;;11.95;71.04
35848;BME280;22332;51.954;20.118;2023-04-15T18:31:38;99700.27;;;11.94;71.40
35848;BME280;22332;51.954;20.118;2023-04-15T18:34:43;99702.75;;;11.94;71.46
35848;BME280;22332;51.954;20.118;2023-04-15T18:37:48;99711.46;;;11.96;71.36
35848;BME280;22332;51.954;20.118;2023-04-15T18:40:54;99715.83;;;11.96;71.47
35848;BME280;22332;51.954;20.118;2023-04-15T18:43:59;99717.73;;;11.95;71.55
35848;BME280;22332;51.954;20.118;2023-04-15T18:47:05;99715.19;;;11.93;71.62
35848;BME280;22332;51.954;20.118;2023-04-15T18:50:11;99717.77;;;11.91;71.71
35848;BME280;22332;51.954;20.118;2023-04-15T18:53:16;99720.51;;;11.85;71.57
35848;BME280;22332;51.954;20.118;2023-04-15T18:56:21;99727.91;;;11.78;72.28
35848;BME280;22332;51.954;20.118;2023-04-15T18:59:27;99741.45;;;11.70;72.50
35848;BME280;22332;51.954;20.118;2023-04-15T19:02:32;99743.84;;;11.65;72.55